createdAt,value
2018-09-19T00:00:29.696Z,17.12
2018-09-19T00:01:29.447Z,17.12
2018-09-19T00:02:29.433Z,17.11
2018-09-19T00:03:29.430Z,17.07
2018-09-19T00:04:29.421Z,17.15
2018-09-19T00:05:29.416Z,17.16
2018-09-19T00:06:29.409Z,17.15
2018-09-19T00:07:29.413Z,17.07
2018-09-19T00:08:29.400Z,17.11
2018-09-19T00:09:29.405Z,17.12
2018-09-19T00:10:29.406Z,17.16
2018-09-19T00:11:29.391Z,17.15
2018-09-19T00:12:29.382Z,17.16
2018-09-19T00:13:29.390Z,17.14
2018-09-19T00:14:29.373Z,17.06
2018-09-19T00:15:29.390Z,17.11
2018-09-19T00:16:29.376Z,17.06
2018-09-19T00:17:29.382Z,17.06
2018-09-19T00:18:29.365Z,17.03
2018-09-19T00:19:29.101Z,17.07
2018-09-19T00:20:29.097Z,17
2018-09-19T00:21:29.343Z,17
2018-09-19T00:22:29.082Z,16.98
2018-09-19T00:23:29.376Z,16.98
2018-09-19T00:24:29.350Z,16.98
2018-09-19T00:25:29.329Z,16.91
2018-09-19T00:26:29.318Z,17.01
2018-09-19T00:27:29.315Z,17.01
2018-09-19T00:28:29.065Z,17.01
2018-09-19T00:29:29.051Z,16.97
2018-09-19T00:30:29.294Z,16.96
2018-09-19T00:31:29.554Z,17
2018-09-19T00:32:29.285Z,16.97
2018-09-19T00:33:29.297Z,17.01
2018-09-19T00:34:29.276Z,17
2018-09-19T00:35:29.298Z,17
2018-09-19T00:36:29.281Z,17
2018-09-19T00:37:29.260Z,16.94
2018-09-19T00:38:29.256Z,16.93
2018-09-19T00:39:29.259Z,17
2018-09-19T00:40:29.248Z,16.94
2018-09-19T00:41:29.245Z,16.98
2018-09-19T00:42:29.239Z,17
2018-09-19T00:43:29.246Z,17.03
2018-09-19T00:44:28.987Z,17.03
2018-09-19T00:45:29.225Z,17.06
2018-09-19T00:46:29.211Z,17.11
2018-09-19T00:47:29.204Z,17.14
2018-09-19T00:48:29.201Z,17.15
2018-09-19T00:49:28.948Z,17.15
2018-09-19T00:50:29.193Z,17.16
2018-09-19T00:51:29.206Z,17.23
2018-09-19T00:52:29.187Z,17.07
2018-09-19T00:53:29.180Z,17.18
2018-09-19T00:54:29.186Z,17.23
2018-09-19T00:55:29.185Z,17.31
2018-09-19T00:56:29.163Z,17.22
2018-09-19T00:57:29.170Z,17.38
2018-09-19T00:58:29.156Z,17.41
2018-09-19T00:59:29.153Z,17.55
2018-09-19T01:00:29.144Z,17.54
2018-09-19T01:01:29.158Z,17.46
2018-09-19T01:02:29.413Z,17.56
2018-09-19T01:03:29.153Z,17.59
2018-09-19T01:04:29.133Z,17.66
2018-09-19T01:05:29.190Z,17.7
2018-09-19T01:06:29.113Z,17.66
2018-09-19T01:07:29.109Z,17.77
2018-09-19T01:08:29.104Z,17.77
2018-09-19T01:09:28.850Z,17.81
2018-09-19T01:10:29.118Z,17.77
2018-09-19T01:11:29.109Z,17.87
2018-09-19T01:12:29.085Z,17.87
2018-09-19T01:13:29.077Z,17.95
2018-09-19T01:14:29.084Z,17.92
2018-09-19T01:15:29.082Z,17.96
2018-09-19T01:16:29.076Z,18
2018-09-19T01:17:28.948Z,17.99
2018-09-19T01:18:29.053Z,17.99
2018-09-19T01:19:29.049Z,18
2018-09-19T01:20:29.175Z,18.05
2018-09-19T01:21:29.041Z,18.02
2018-09-19T01:22:29.080Z,18.02
2018-09-19T01:23:29.032Z,18.05
2018-09-19T01:24:29.030Z,18.02
2018-09-19T01:25:29.041Z,18.1
2018-09-19T01:26:29.023Z,18.05
2018-09-19T01:27:29.022Z,18.05
2018-09-19T01:28:29.015Z,18.03
2018-09-19T01:29:29.033Z,17.96
2018-09-19T01:30:29.005Z,18.03
2018-09-19T01:31:29.000Z,17.97
2018-09-19T01:32:28.999Z,17.97
2018-09-19T01:33:28.993Z,18.03
2018-09-19T01:34:28.989Z,18.03
2018-09-19T01:35:28.980Z,18.02
2018-09-19T01:36:28.977Z,17.97
2018-09-19T01:37:28.968Z,17.92
2018-09-19T01:38:28.969Z,17.95
2018-09-19T01:39:28.962Z,17.92
2018-09-19T01:40:28.956Z,17.92
2018-09-19T01:41:28.948Z,17.9
2018-09-19T01:42:28.949Z,17.93
2018-09-19T01:43:28.943Z,17.93
2018-09-19T01:44:28.957Z,17.9
2018-09-19T01:45:28.933Z,17.92
2018-09-19T01:46:28.925Z,17.82
2018-09-19T01:47:28.930Z,17.84
2018-09-19T01:48:28.922Z,17.86
2018-09-19T01:49:28.929Z,17.82
2018-09-19T01:50:28.657Z,17.82
2018-09-19T01:51:28.904Z,17.82
2018-09-19T01:52:28.901Z,17.81
2018-09-19T01:53:28.901Z,17.84
2018-09-19T01:54:28.905Z,17.82
2018-09-19T01:55:28.890Z,17.81
2018-09-19T01:56:28.881Z,17.84
2018-09-19T01:57:28.877Z,17.87
2018-09-19T01:58:28.878Z,17.81
2018-09-19T01:59:28.965Z,17.79
2018-09-19T02:00:28.879Z,17.78
2018-09-19T02:01:28.858Z,17.75
2018-09-19T02:02:28.862Z,17.81
2018-09-19T02:03:28.904Z,17.78
2018-09-19T02:04:28.844Z,17.79
2018-09-19T02:05:28.852Z,17.7
2018-09-19T02:06:28.837Z,17.75
2018-09-19T02:07:28.834Z,17.75
2018-09-19T02:08:28.826Z,17.82
2018-09-19T02:09:28.825Z,17.77
2018-09-19T02:10:28.823Z,17.74
2018-09-19T02:11:28.814Z,17.81
2018-09-19T02:12:28.563Z,17.74
2018-09-19T02:13:28.804Z,17.71
2018-09-19T02:14:28.794Z,17.77
2018-09-19T02:15:28.799Z,17.82
2018-09-19T02:16:28.801Z,17.77
2018-09-19T02:17:28.786Z,17.81
2018-09-19T02:18:28.775Z,17.78
2018-09-19T02:19:28.772Z,17.77
2018-09-19T02:20:28.791Z,17.78
2018-09-19T02:21:28.769Z,17.78
2018-09-19T02:22:28.772Z,17.77
2018-09-19T02:23:28.771Z,17.75
2018-09-19T02:24:28.754Z,17.75
2018-09-19T02:25:28.744Z,17.66
2018-09-19T02:26:28.740Z,17.75
2018-09-19T02:27:28.739Z,17.72
2018-09-19T02:28:28.906Z,17.81
2018-09-19T02:29:28.727Z,17.77
2018-09-19T02:30:28.746Z,17.82
2018-09-19T02:31:28.760Z,17.82
2018-09-19T02:32:28.741Z,17.9
2018-09-19T02:33:28.710Z,17.87
2018-09-19T02:34:28.739Z,17.92
2018-09-19T02:35:28.766Z,18
2018-09-19T02:36:28.947Z,18.03
2018-09-19T02:37:28.449Z,18.12
2018-09-19T02:38:28.688Z,18.12
2018-09-19T02:39:28.700Z,18.14
2018-09-19T02:40:28.451Z,18.15
2018-09-19T02:41:28.686Z,18.12
2018-09-19T02:42:28.666Z,18.1
2018-09-19T02:43:28.692Z,18.25
2018-09-19T02:44:28.664Z,18.1
2018-09-19T02:45:28.664Z,18.15
2018-09-19T02:46:28.645Z,18.14
2018-09-19T02:47:28.648Z,18.17
2018-09-19T02:48:28.638Z,18.17
2018-09-19T02:49:28.649Z,18.14
2018-09-19T02:50:28.648Z,18.23
2018-09-19T02:51:31.174Z,18.18
2018-09-19T02:52:28.627Z,18.2
2018-09-19T02:53:28.613Z,18.2
2018-09-19T02:54:31.215Z,18.23
2018-09-19T02:55:28.611Z,18.25
2018-09-19T02:56:28.634Z,18.2
2018-09-19T02:57:28.618Z,18.15
2018-09-19T02:58:28.357Z,18.1
2018-09-19T02:59:28.671Z,18.1
2018-09-19T03:00:28.595Z,18.1
2018-09-19T03:01:28.580Z,18.08
2018-09-19T03:02:28.571Z,18.17
2018-09-19T03:03:28.565Z,18.14
2018-09-19T03:04:28.600Z,18.2
2018-09-19T03:05:28.564Z,18.15
2018-09-19T03:06:28.562Z,18.17
2018-09-19T03:07:28.800Z,18.12
2018-09-19T03:08:28.552Z,18.11
2018-09-19T03:09:28.561Z,18.11
2018-09-19T03:10:28.285Z,18.11
2018-09-19T03:11:28.549Z,18.11
2018-09-19T03:12:28.528Z,18.17
2018-09-19T03:13:28.521Z,18.17
2018-09-19T03:14:28.517Z,18.15
2018-09-19T03:15:28.520Z,18.1
2018-09-19T03:16:28.507Z,18.08
2018-09-19T03:17:28.951Z,18.12
2018-09-19T03:18:28.521Z,18.08
2018-09-19T03:19:28.539Z,18.1
2018-09-19T03:20:28.495Z,18.08
2018-09-19T03:21:28.490Z,18.1
2018-09-19T03:22:28.477Z,18.14
2018-09-19T03:23:28.226Z,18.12
2018-09-19T03:24:28.498Z,18.05
2018-09-19T03:25:28.476Z,18.02
2018-09-19T03:26:28.458Z,18.03
2018-09-19T03:27:28.460Z,18
2018-09-19T03:28:28.448Z,17.93
2018-09-19T03:29:28.443Z,17.9
2018-09-19T03:30:28.458Z,17.92
2018-09-19T03:31:28.524Z,17.93
2018-09-19T03:32:27.930Z,17.92
2018-09-19T03:33:28.432Z,17.84
2018-09-19T03:34:28.203Z,17.84
2018-09-19T03:35:28.721Z,17.82
2018-09-19T03:36:28.418Z,17.77
2018-09-19T03:37:28.465Z,17.82
2018-09-19T03:38:28.653Z,17.84
2018-09-19T03:39:28.425Z,17.87
2018-09-19T03:40:28.139Z,17.78
2018-09-19T03:41:28.387Z,17.64
2018-09-19T03:42:28.388Z,17.66
2018-09-19T03:43:28.383Z,17.7
2018-09-19T03:44:28.141Z,17.66
2018-09-19T03:45:28.373Z,17.63
2018-09-19T03:46:28.366Z,17.59
2018-09-19T03:47:28.363Z,17.58
2018-09-19T03:48:28.351Z,17.46
2018-09-19T03:49:28.366Z,17.52
2018-09-19T03:50:28.355Z,17.54
2018-09-19T03:51:28.089Z,17.52
2018-09-19T03:52:28.338Z,17.44
2018-09-19T03:53:28.336Z,17.43
2018-09-19T03:54:28.087Z,17.41
2018-09-19T03:55:28.075Z,17.4
2018-09-19T03:56:28.328Z,17.4
2018-09-19T03:57:28.324Z,17.37
2018-09-19T03:58:28.454Z,17.31
2018-09-19T03:59:28.304Z,17.33
2018-09-19T04:00:28.296Z,17.34
2018-09-19T04:01:28.326Z,17.3
2018-09-19T04:02:28.313Z,17.19
2018-09-19T04:03:28.295Z,17.22
2018-09-19T04:04:28.289Z,17.07
2018-09-19T04:05:28.282Z,17.08
2018-09-19T04:06:28.269Z,17.23
2018-09-19T04:07:28.266Z,17.19
2018-09-19T04:08:28.257Z,17.19
2018-09-19T04:09:28.268Z,17.06
2018-09-19T04:10:28.251Z,17.07
2018-09-19T04:11:28.246Z,17.11
2018-09-19T04:12:28.236Z,17.07
2018-09-19T04:13:28.238Z,17.03
2018-09-19T04:14:28.234Z,16.97
2018-09-19T04:15:28.235Z,17.03
2018-09-19T04:16:28.216Z,16.96
2018-09-19T04:17:28.219Z,16.94
2018-09-19T04:18:28.216Z,16.91
2018-09-19T04:19:28.208Z,16.88
2018-09-19T04:20:28.209Z,16.91
2018-09-19T04:21:28.198Z,16.89
2018-09-19T04:22:28.206Z,16.78
2018-09-19T04:23:28.182Z,16.86
2018-09-19T04:24:28.194Z,16.85
2018-09-19T04:25:27.930Z,16.79
2018-09-19T04:26:28.182Z,16.7
2018-09-19T04:27:28.177Z,16.76
2018-09-19T04:28:28.152Z,16.7
2018-09-19T04:29:28.149Z,16.7
2018-09-19T04:31:27.885Z,16.67
2018-09-19T04:32:28.688Z,16.66
2018-09-19T04:33:28.134Z,16.66
2018-09-19T04:34:28.139Z,16.64
2018-09-19T04:35:28.122Z,16.57
2018-09-19T04:36:28.940Z,16.57
2018-09-19T04:37:27.854Z,16.57
2018-09-19T04:38:28.140Z,16.6
2018-09-19T04:39:27.851Z,16.5
2018-09-19T04:40:28.101Z,16.56
2018-09-19T04:41:28.347Z,16.5
2018-09-19T04:42:28.083Z,16.46
2018-09-19T04:43:28.089Z,16.5
2018-09-19T04:44:28.074Z,16.5
2018-09-19T04:45:27.825Z,16.39
2018-09-19T04:46:28.070Z,16.45
2018-09-19T04:47:28.063Z,16.43
2018-09-19T04:48:28.052Z,16.41
2018-09-19T04:49:28.065Z,16.45
2018-09-19T04:50:28.076Z,16.43
2018-09-19T04:51:28.185Z,16.39
2018-09-19T04:52:28.125Z,16.45
2018-09-19T04:53:28.027Z,16.42
2018-09-19T04:54:28.020Z,16.43
2018-09-19T04:55:28.011Z,16.43
2018-09-19T04:56:28.033Z,16.38
2018-09-19T04:57:28.008Z,16.42
2018-09-19T04:58:28.001Z,16.42
2018-09-19T04:59:27.999Z,16.43
2018-09-19T05:00:28.037Z,16.41
2018-09-19T05:01:27.996Z,16.41
2018-09-19T05:02:27.972Z,16.48
2018-09-19T05:03:27.465Z,16.46
2018-09-19T05:04:27.972Z,16.53
2018-09-19T05:05:27.967Z,16.49
2018-09-19T05:06:27.966Z,16.57
2018-09-19T05:07:28.310Z,16.61
2018-09-19T05:08:27.697Z,16.61
2018-09-19T05:09:27.969Z,16.57
2018-09-19T05:10:27.949Z,16.53
2018-09-19T05:11:28.177Z,16.61
2018-09-19T05:12:28.217Z,16.63
2018-09-19T05:13:27.940Z,16.68
2018-09-19T05:14:27.667Z,16.79
2018-09-19T05:15:27.907Z,16.85
2018-09-19T05:16:27.664Z,16.83
2018-09-19T05:17:27.891Z,16.78
2018-09-19T05:18:27.898Z,16.94
2018-09-19T05:19:27.924Z,16.98
2018-09-19T05:20:27.884Z,17.15
2018-09-19T05:21:27.905Z,17.12
2018-09-19T05:22:27.875Z,17.19
2018-09-19T05:23:27.920Z,17.33
2018-09-19T05:24:27.611Z,17.46
2018-09-19T05:25:27.865Z,17.48
2018-09-19T05:26:27.863Z,17.63
2018-09-19T05:27:27.854Z,17.63
2018-09-19T05:28:27.847Z,17.77
2018-09-19T05:29:27.847Z,17.87
2018-09-19T05:30:27.834Z,18.05
2018-09-19T05:31:27.879Z,18.2
2018-09-19T05:32:27.842Z,18.32
2018-09-19T05:33:27.820Z,18.39
2018-09-19T05:34:27.824Z,18.51
2018-09-19T05:35:27.559Z,18.57
2018-09-19T05:36:27.814Z,18.75
2018-09-19T05:37:27.803Z,18.9
2018-09-19T05:38:27.804Z,18.95
2018-09-19T05:39:27.542Z,19.04
2018-09-19T05:40:27.789Z,19.19
2018-09-19T05:41:27.536Z,19.4
2018-09-19T05:42:27.578Z,19.55
2018-09-19T05:43:28.033Z,19.62
2018-09-19T05:44:27.529Z,19.86
2018-09-19T05:45:27.778Z,19.94
2018-09-19T05:46:27.988Z,20.02
2018-09-19T05:47:27.774Z,20.14
2018-09-19T05:48:27.769Z,20.28
2018-09-19T05:49:27.840Z,20.32
2018-09-19T05:50:27.763Z,20.47
2018-09-19T05:51:27.765Z,20.57
2018-09-19T05:52:27.753Z,20.85
2018-09-19T05:53:27.752Z,20.98
2018-09-19T05:54:27.917Z,21.1
2018-09-19T05:55:27.751Z,21.25
2018-09-19T05:56:27.741Z,21.37
2018-09-19T05:57:27.745Z,21.5
2018-09-19T05:58:27.743Z,21.71
2018-09-19T05:59:27.767Z,21.83
2018-09-19T06:00:27.745Z,21.92
2018-09-19T06:01:27.740Z,22.14
2018-09-19T06:02:27.739Z,22.25
2018-09-19T06:03:27.747Z,22.35
2018-09-19T06:04:27.737Z,22.58
2018-09-19T06:05:27.481Z,22.75
2018-09-19T06:06:27.734Z,22.85
2018-09-19T06:07:27.482Z,22.95
2018-09-19T06:08:27.520Z,23.23
2018-09-19T06:09:27.730Z,23.25
2018-09-19T06:10:27.729Z,23.42
2018-09-19T06:11:27.741Z,23.58
2018-09-19T06:12:27.471Z,23.76
2018-09-19T06:13:27.730Z,23.95
2018-09-19T06:14:28.043Z,24.08
2018-09-19T06:15:27.726Z,24.24
2018-09-19T06:16:27.732Z,24.3
2018-09-19T06:17:27.730Z,24.42
2018-09-19T06:18:27.729Z,24.5
2018-09-19T06:19:27.732Z,24.67
2018-09-19T06:20:27.744Z,24.83
2018-09-19T06:21:27.538Z,24.96
2018-09-19T06:22:27.733Z,25.13
2018-09-19T06:23:27.740Z,25.28
2018-09-19T06:24:27.735Z,25.4
2018-09-19T06:25:27.741Z,25.64
2018-09-19T06:26:27.747Z,25.76
2018-09-19T06:27:27.781Z,26.01
2018-09-19T06:28:27.745Z,26.07
2018-09-19T06:29:27.754Z,26.35
2018-09-19T06:30:27.753Z,26.54
2018-09-19T06:31:27.816Z,26.76
2018-09-19T06:32:27.507Z,26.88
2018-09-19T06:33:27.967Z,27.07
2018-09-19T06:34:27.784Z,27.17
2018-09-19T06:35:27.763Z,27.4
2018-09-19T06:36:27.764Z,27.77
2018-09-19T06:37:27.773Z,27.84
2018-09-19T06:38:27.853Z,28
2018-09-19T06:39:27.788Z,28.18
2018-09-19T06:40:28.231Z,28.25
2018-09-19T06:41:27.794Z,28.39
2018-09-19T06:42:27.551Z,28.41
2018-09-19T06:43:27.807Z,28.48
2018-09-19T06:44:27.867Z,28.4
2018-09-19T06:45:27.847Z,28.43
2018-09-19T06:46:27.829Z,28.44
2018-09-19T06:47:27.820Z,28.37
2018-09-19T06:48:27.830Z,28.37
2018-09-19T06:49:27.860Z,28.29
2018-09-19T06:50:27.835Z,28.21
2018-09-19T06:51:27.846Z,28.04
2018-09-19T06:52:28.143Z,28.15
2018-09-19T06:53:27.597Z,28.14
2018-09-19T06:54:27.852Z,28.09
2018-09-19T06:55:27.856Z,28.21
2018-09-19T06:56:27.863Z,28.3
2018-09-19T06:57:27.868Z,28.37
2018-09-19T06:58:27.869Z,28.4
2018-09-19T06:59:27.882Z,28.56
2018-09-19T07:00:27.881Z,28.66
2018-09-19T07:01:27.640Z,28.9
2018-09-19T07:02:27.893Z,28.96
2018-09-19T07:03:27.900Z,29.16
2018-09-19T07:04:27.658Z,29.33
2018-09-19T07:05:27.908Z,29.52
2018-09-19T07:06:27.917Z,29.64
2018-09-19T07:07:27.920Z,29.8
2018-09-19T07:08:27.927Z,29.87
2018-09-19T07:09:27.685Z,30.08
2018-09-19T07:10:28.048Z,30.24
2018-09-19T07:11:27.942Z,30.38
2018-09-19T07:12:27.953Z,30.57
2018-09-19T07:13:27.953Z,30.7
2018-09-19T07:14:28.037Z,30.99
2018-09-19T07:15:27.975Z,31.07
2018-09-19T07:16:27.728Z,31.14
2018-09-19T07:17:27.994Z,31.26
2018-09-19T07:18:28.010Z,31.31
2018-09-19T07:19:28.064Z,31.35
2018-09-19T07:20:28.016Z,31.41
2018-09-19T07:21:28.029Z,31.43
2018-09-19T07:22:28.033Z,31.43
2018-09-19T07:23:28.043Z,31.5
2018-09-19T07:24:28.060Z,31.54
2018-09-19T07:25:28.074Z,31.56
2018-09-19T07:26:28.069Z,31.7
2018-09-19T07:27:28.077Z,31.69
2018-09-19T07:28:28.094Z,31.69
2018-09-19T07:29:28.109Z,31.73
2018-09-19T07:30:28.115Z,31.73
2018-09-19T07:31:28.121Z,31.7
2018-09-19T07:32:28.131Z,31.66
2018-09-19T07:33:28.134Z,31.58
2018-09-19T07:34:28.203Z,31.56
2018-09-19T07:35:28.163Z,31.54
2018-09-19T07:36:28.161Z,31.51
2018-09-19T07:37:28.177Z,31.47
2018-09-19T07:38:28.180Z,31.38
2018-09-19T07:39:28.207Z,31.28
2018-09-19T07:40:28.514Z,31.17
2018-09-19T07:41:28.211Z,31.2
2018-09-19T07:42:28.217Z,31.01
2018-09-19T07:43:27.974Z,30.99
2018-09-19T07:44:28.247Z,30.97
2018-09-19T07:45:28.245Z,30.98
2018-09-19T07:46:28.411Z,30.98
2018-09-19T07:47:28.272Z,30.99
2018-09-19T07:48:28.518Z,31.02
2018-09-19T07:49:28.286Z,30.99
2018-09-19T07:50:28.287Z,31.04
2018-09-19T07:51:28.296Z,30.99
2018-09-19T07:52:28.307Z,31.01
2018-09-19T07:53:28.062Z,30.91
2018-09-19T07:54:28.421Z,30.88
2018-09-19T07:55:28.251Z,30.76
2018-09-19T07:56:28.349Z,30.72
2018-09-19T07:57:28.348Z,30.62
2018-09-19T07:58:28.362Z,30.54
2018-09-19T07:59:28.380Z,30.53
2018-09-19T08:00:28.473Z,30.47
2018-09-19T08:01:28.381Z,30.37
2018-09-19T08:02:28.453Z,30.2
2018-09-19T08:03:28.392Z,30.01
2018-09-19T08:04:28.148Z,29.95
2018-09-19T08:05:28.413Z,29.9
2018-09-19T08:06:28.411Z,29.8
2018-09-19T08:07:28.418Z,29.7
2018-09-19T08:08:28.421Z,29.63
2018-09-19T08:09:28.436Z,29.46
2018-09-19T08:10:28.442Z,29.37
2018-09-19T08:11:28.462Z,29.26
2018-09-19T08:12:28.458Z,29.14
2018-09-19T08:13:28.465Z,29.06
2018-09-19T08:14:28.463Z,29.11
2018-09-19T08:15:28.464Z,29
2018-09-19T08:16:28.472Z,28.86
2018-09-19T08:17:28.479Z,28.88
2018-09-19T08:18:28.487Z,28.83
2018-09-19T08:19:28.756Z,28.73
2018-09-19T08:20:28.505Z,28.64
2018-09-19T08:21:28.248Z,28.49
2018-09-19T08:22:28.637Z,28.44
2018-09-19T08:23:28.506Z,28.34
2018-09-19T08:24:28.513Z,28.37
2018-09-19T08:25:28.515Z,28.4
2018-09-19T08:26:28.521Z,28.33
2018-09-19T08:27:28.526Z,28.29
2018-09-19T08:28:28.526Z,28.3
2018-09-19T08:29:28.545Z,28.33
2018-09-19T08:30:28.545Z,28.31
2018-09-19T08:31:28.537Z,28.27
2018-09-19T08:32:28.544Z,28.33
2018-09-19T08:33:28.566Z,28.21
2018-09-19T08:34:28.561Z,28.21
2018-09-19T08:35:28.552Z,28.25
2018-09-19T08:36:28.561Z,28.24
2018-09-19T08:37:28.576Z,28.3
2018-09-19T08:38:28.570Z,28.18
2018-09-19T08:39:28.570Z,28.21
2018-09-19T08:40:28.572Z,28.11
2018-09-19T08:41:28.582Z,28.04
2018-09-19T08:42:28.587Z,28.03
2018-09-19T08:43:28.585Z,27.93
2018-09-19T08:44:28.590Z,27.77
2018-09-19T08:45:28.592Z,27.78
2018-09-19T08:46:28.340Z,27.74
2018-09-19T08:47:28.590Z,27.72
2018-09-19T08:48:28.666Z,27.67
2018-09-19T08:49:28.605Z,27.66
2018-09-19T08:50:28.955Z,27.66
2018-09-19T08:51:28.359Z,27.65
2018-09-19T08:52:28.658Z,27.47
2018-09-19T08:53:28.668Z,27.57
2018-09-19T08:54:28.622Z,27.54
2018-09-19T08:55:28.624Z,27.46
2018-09-19T08:56:28.627Z,27.41
2018-09-19T08:57:28.632Z,27.36
2018-09-19T08:58:28.632Z,27.29
2018-09-19T08:59:28.658Z,27.27
2018-09-19T09:00:28.671Z,27.25
2018-09-19T09:01:28.643Z,27.1
2018-09-19T09:02:28.637Z,27.17
2018-09-19T09:03:28.636Z,27.12
2018-09-19T09:04:28.642Z,27.09
2018-09-19T09:05:29.202Z,26.99
2018-09-19T09:06:28.393Z,27
2018-09-19T09:07:28.648Z,27.06
2018-09-19T09:08:28.647Z,27
2018-09-19T09:09:28.660Z,26.95
2018-09-19T09:10:28.663Z,26.99
2018-09-19T09:11:28.659Z,27
2018-09-19T09:12:28.762Z,26.97
2018-09-19T09:13:28.679Z,26.95
2018-09-19T09:14:28.665Z,26.99
2018-09-19T09:15:28.668Z,26.94
2018-09-19T09:16:28.425Z,27
2018-09-19T09:17:28.421Z,26.95
2018-09-19T09:18:28.674Z,26.99
2018-09-19T09:19:28.679Z,26.91
2018-09-19T09:20:28.711Z,26.87
2018-09-19T09:21:28.683Z,26.91
2018-09-19T09:22:28.682Z,26.89
2018-09-19T09:23:28.687Z,26.82
2018-09-19T09:24:28.683Z,26.88
2018-09-19T09:25:28.699Z,26.91
2018-09-19T09:26:28.702Z,26.89
2018-09-19T09:27:29.046Z,26.84
2018-09-19T09:28:28.693Z,26.92
2018-09-19T09:29:28.695Z,26.87
2018-09-19T09:30:28.701Z,26.92
2018-09-19T09:31:28.695Z,26.87
2018-09-19T09:32:28.714Z,26.85
2018-09-19T09:33:28.707Z,26.89
2018-09-19T09:34:29.021Z,26.88
2018-09-19T09:35:28.717Z,26.88
2018-09-19T09:36:28.706Z,26.87
2018-09-19T09:37:28.710Z,26.87
2018-09-19T09:38:28.462Z,26.81
2018-09-19T09:39:28.714Z,26.87
2018-09-19T09:40:29.066Z,26.84
2018-09-19T09:41:28.716Z,26.87
2018-09-19T09:42:28.716Z,26.85
2018-09-19T09:43:28.559Z,26.81
2018-09-19T09:44:28.724Z,26.88
2018-09-19T09:45:28.749Z,26.88
2018-09-19T09:46:28.731Z,26.85
2018-09-19T09:47:28.735Z,26.82
2018-09-19T09:48:28.725Z,26.87
2018-09-19T09:49:28.731Z,26.91
2018-09-19T09:50:29.066Z,26.95
2018-09-19T09:51:28.860Z,26.88
2018-09-19T09:52:28.741Z,26.87
2018-09-19T09:53:29.110Z,26.88
2018-09-19T09:54:28.741Z,26.84
2018-09-19T09:55:28.740Z,26.8
2018-09-19T09:56:28.757Z,26.81
2018-09-19T09:57:28.744Z,26.85
2018-09-19T09:58:28.747Z,26.85
2018-09-19T09:59:28.745Z,26.82
2018-09-19T10:00:28.497Z,26.87
2018-09-19T10:01:28.748Z,26.87
2018-09-19T10:02:28.750Z,26.87
2018-09-19T10:03:28.774Z,26.84
2018-09-19T10:04:28.756Z,26.88
2018-09-19T10:05:28.756Z,26.85
2018-09-19T10:06:29.039Z,26.88
2018-09-19T10:07:28.768Z,26.84
2018-09-19T10:08:28.517Z,26.81
2018-09-19T10:09:28.762Z,26.88
2018-09-19T10:10:28.511Z,26.84
2018-09-19T10:11:28.511Z,26.77
2018-09-19T10:12:28.767Z,26.81
2018-09-19T10:13:28.769Z,26.81
2018-09-19T10:14:28.515Z,26.82
2018-09-19T10:15:28.773Z,26.82
2018-09-19T10:16:28.822Z,26.82
2018-09-19T10:17:28.770Z,26.81
2018-09-19T10:18:28.769Z,26.84
2018-09-19T10:19:28.775Z,26.88
2018-09-19T10:20:28.772Z,26.91
2018-09-19T10:21:28.779Z,27
2018-09-19T10:22:28.272Z,26.94
2018-09-19T10:23:28.777Z,26.92
2018-09-19T10:24:28.788Z,26.97
2018-09-19T10:25:28.782Z,26.95
2018-09-19T10:26:28.784Z,26.91
2018-09-19T10:27:28.532Z,26.92
2018-09-19T10:28:28.789Z,26.87
2018-09-19T10:29:28.965Z,26.89
2018-09-19T10:30:28.792Z,26.88
2018-09-19T10:31:28.790Z,26.85
2018-09-19T10:32:28.794Z,26.84
2018-09-19T10:33:28.812Z,26.87
2018-09-19T10:34:28.794Z,26.95
2018-09-19T10:35:29.052Z,26.99
2018-09-19T10:36:28.800Z,27
2018-09-19T10:37:28.797Z,26.99
2018-09-19T10:38:28.800Z,26.95
2018-09-19T10:39:28.805Z,27
2018-09-19T10:40:28.801Z,26.97
2018-09-19T10:41:28.811Z,27.06
2018-09-19T10:42:28.805Z,27
2018-09-19T10:43:28.805Z,27.02
2018-09-19T10:44:28.816Z,26.97
2018-09-19T10:45:28.809Z,27
2018-09-19T10:46:28.809Z,27
2018-09-19T10:47:28.564Z,27.03
2018-09-19T10:48:28.814Z,27
2018-09-19T10:49:29.003Z,27.06
2018-09-19T10:50:28.818Z,26.99
2018-09-19T10:51:28.834Z,27.06
2018-09-19T10:52:28.567Z,27.03
2018-09-19T10:53:28.568Z,27.02
2018-09-19T10:54:28.829Z,27.18
2018-09-19T10:55:28.826Z,27.17
2018-09-19T10:56:28.826Z,27.07
2018-09-19T10:57:28.573Z,27.07
2018-09-19T10:58:28.832Z,27.18
2018-09-19T10:59:28.845Z,27.1
2018-09-19T11:00:28.836Z,27.21
2018-09-19T11:01:28.831Z,27.25
2018-09-19T11:02:28.833Z,27.24
2018-09-19T11:03:28.845Z,27.25
2018-09-19T11:04:28.841Z,27.22
2018-09-19T11:05:28.846Z,27.34
2018-09-19T11:06:28.843Z,27.29
2018-09-19T11:07:28.846Z,27.21
2018-09-19T11:08:28.851Z,27.18
2018-09-19T11:09:28.847Z,27.25
2018-09-19T11:10:28.850Z,27.27
2018-09-19T11:11:28.852Z,27.28
2018-09-19T11:12:28.598Z,27.27
2018-09-19T11:13:28.852Z,27.29
2018-09-19T11:14:28.853Z,27.27
2018-09-19T11:15:28.604Z,27.36
2018-09-19T11:16:28.856Z,27.36
2018-09-19T11:17:28.858Z,27.41
2018-09-19T11:18:28.857Z,27.39
2018-09-19T11:19:28.865Z,27.36
2018-09-19T11:20:28.865Z,27.39
2018-09-19T11:21:28.863Z,27.37
2018-09-19T11:22:28.866Z,27.37
2018-09-19T11:23:28.872Z,27.49
2018-09-19T11:24:28.876Z,27.32
2018-09-19T11:25:28.874Z,27.32
2018-09-19T11:26:29.078Z,27.32
2018-09-19T11:27:28.882Z,27.32
2018-09-19T11:28:28.877Z,27.28
2018-09-19T11:29:28.880Z,27.28
2018-09-19T11:30:28.878Z,27.28
2018-09-19T11:31:28.884Z,27.36
2018-09-19T11:32:28.888Z,27.41
2018-09-19T11:33:28.940Z,27.36
2018-09-19T11:34:28.883Z,27.46
2018-09-19T11:35:28.885Z,27.43
2018-09-19T11:36:28.888Z,27.44
2018-09-19T11:37:28.638Z,27.5
2018-09-19T11:38:28.890Z,27.51
2018-09-19T11:39:28.894Z,27.54
2018-09-19T11:40:28.895Z,27.59
2018-09-19T11:41:28.645Z,27.46
2018-09-19T11:42:28.899Z,27.54
2018-09-19T11:43:29.079Z,27.54
2018-09-19T11:44:28.907Z,27.6
2018-09-19T11:45:28.655Z,27.59
2018-09-19T11:46:28.655Z,27.62
2018-09-19T11:47:28.916Z,27.57
2018-09-19T11:48:28.915Z,27.59
2018-09-19T11:49:28.661Z,27.66
2018-09-19T11:50:28.919Z,27.63
2018-09-19T11:51:28.666Z,27.59
2018-09-19T11:52:28.917Z,27.67
2018-09-19T11:53:28.670Z,27.65
2018-09-19T11:54:28.919Z,27.7
2018-09-19T11:55:28.926Z,27.79
2018-09-19T11:56:28.672Z,27.79
2018-09-19T11:57:28.679Z,27.75
2018-09-19T11:58:28.930Z,27.69
2018-09-19T11:59:28.931Z,27.67
2018-09-19T12:00:28.935Z,27.74
2018-09-19T12:01:28.934Z,27.77
2018-09-19T12:02:28.941Z,27.81
2018-09-19T12:03:28.943Z,27.77
2018-09-19T12:04:28.695Z,27.75
2018-09-19T12:05:28.945Z,27.82
2018-09-19T12:06:28.941Z,27.77
2018-09-19T12:07:29.150Z,27.87
2018-09-19T12:08:28.949Z,27.92
2018-09-19T12:09:28.954Z,27.84
2018-09-19T12:10:28.956Z,27.99
2018-09-19T12:11:28.952Z,27.99
2018-09-19T12:12:28.953Z,28.03
2018-09-19T12:13:28.956Z,28.06
2018-09-19T12:14:28.961Z,28.03
2018-09-19T12:15:28.961Z,28.03
2018-09-19T12:16:28.960Z,28.03
2018-09-19T12:17:28.712Z,28.02
2018-09-19T12:18:28.965Z,28.03
2018-09-19T12:19:29.122Z,28
2018-09-19T12:20:28.973Z,28.06
2018-09-19T12:21:28.971Z,28.09
2018-09-19T12:22:28.982Z,28.14
2018-09-19T12:23:28.981Z,28.11
2018-09-19T12:24:28.977Z,28.14
2018-09-19T12:25:28.978Z,28.19
2018-09-19T12:26:29.224Z,28.24
2018-09-19T12:27:28.989Z,28.25
2018-09-19T12:28:28.734Z,28.22
2018-09-19T12:29:28.990Z,28.27
2018-09-19T12:30:28.990Z,28.18
2018-09-19T12:31:28.745Z,28.19
2018-09-19T12:32:28.996Z,28.3
2018-09-19T12:33:28.848Z,28.31
2018-09-19T12:34:29.007Z,28.27
2018-09-19T12:35:29.002Z,28.39
2018-09-19T12:36:29.005Z,28.4
2018-09-19T12:37:29.012Z,28.39
2018-09-19T12:38:28.756Z,28.37
2018-09-19T12:39:29.126Z,28.39
2018-09-19T12:40:28.768Z,28.37
2018-09-19T12:41:29.022Z,28.49
2018-09-19T12:42:28.767Z,28.4
2018-09-19T12:43:29.020Z,28.46
2018-09-19T12:44:29.021Z,28.51
2018-09-19T12:45:29.026Z,28.46
2018-09-19T12:46:29.026Z,28.51
2018-09-19T12:47:29.031Z,28.51
2018-09-19T12:48:28.780Z,28.48
2018-09-19T12:49:29.035Z,28.58
2018-09-19T12:50:29.040Z,28.56
2018-09-19T12:51:29.040Z,28.56
2018-09-19T12:52:29.042Z,28.52
2018-09-19T12:53:28.887Z,28.49
2018-09-19T12:54:29.053Z,28.51
2018-09-19T12:55:29.048Z,28.54
2018-09-19T12:56:29.049Z,28.51
2018-09-19T12:57:29.053Z,28.51
2018-09-19T12:58:29.055Z,28.48